地図

経路データ

SID SEASON NUMBER BASIN SUBBASIN NAME ISO_TIME NATURE LAT LON WMO_WIND WMO_PRES WMO_AGENCY TRACK_TYPE DIST2LAND LANDFALL IFLAG USA_AGENCY USA_ATCF_ID USA_LAT USA_LON USA_RECORD USA_STATUS USA_WIND USA_PRES USA_SSHS USA_R34_NE USA_R34_SE USA_R34_SW USA_R34_NW USA_R50_NE USA_R50_SE USA_R50_SW USA_R50_NW USA_R64_NE USA_R64_SE USA_R64_SW USA_R64_NW USA_POCI USA_ROCI USA_RMW USA_EYE TOKYO_LAT TOKYO_LON TOKYO_GRADE TOKYO_WIND TOKYO_PRES TOKYO_R50_DIR TOKYO_R50_LONG TOKYO_R50_SHORT TOKYO_R30_DIR TOKYO_R30_LONG TOKYO_R30_SHORT TOKYO_LAND CMA_LAT CMA_LON CMA_CAT CMA_WIND CMA_PRES HKO_LAT HKO_LON HKO_CAT HKO_WIND HKO_PRES NEWDELHI_LAT NEWDELHI_LON NEWDELHI_GRADE NEWDELHI_WIND NEWDELHI_PRES NEWDELHI_CI NEWDELHI_DP NEWDELHI_POCI REUNION_LAT REUNION_LON REUNION_TYPE REUNION_WIND REUNION_PRES REUNION_TNUM REUNION_CI REUNION_RMW REUNION_R34_NE REUNION_R34_SE REUNION_R34_SW REUNION_R34_NW REUNION_R50_NE REUNION_R50_SE REUNION_R50_SW REUNION_R50_NW REUNION_R64_NE REUNION_R64_SE REUNION_R64_SW REUNION_R64_NW BOM_LAT BOM_LON BOM_TYPE BOM_WIND BOM_PRES BOM_TNUM BOM_CI BOM_RMW BOM_R34_NE BOM_R34_SE BOM_R34_SW BOM_R34_NW BOM_R50_NE BOM_R50_SE BOM_R50_SW BOM_R50_NW BOM_R64_NE BOM_R64_SE BOM_R64_SW BOM_R64_NW BOM_ROCI BOM_POCI BOM_EYE BOM_POS_METHOD BOM_PRES_METHOD NADI_LAT NADI_LON NADI_CAT NADI_WIND NADI_PRES WELLINGTON_LAT WELLINGTON_LON WELLINGTON_WIND WELLINGTON_PRES DS824_LAT DS824_LON DS824_STAGE DS824_WIND DS824_PRES TD9636_LAT TD9636_LON TD9636_STAGE TD9636_WIND TD9636_PRES TD9635_LAT TD9635_LON TD9635_WIND TD9635_PRES TD9635_ROCI NEUMANN_LAT NEUMANN_LON NEUMANN_CLASS NEUMANN_WIND NEUMANN_PRES MLC_LAT MLC_LON MLC_CLASS MLC_WIND MLC_PRES USA_GUST BOM_GUST BOM_GUST_PER REUNION_GUST REUNION_GUST_PER USA_SEAHGT USA_SEARAD_NE USA_SEARAD_SE USA_SEARAD_SW USA_SEARAD_NW STORM_SPEED STORM_DIR
1955279N13091 1955 83 NI BB NOT_NAMED 1955-10-05 18:00:00 TS 13.2000 91.2000 main 450 418 O________O____ jtwc_io IO111955 13.2000 91.2000 -1 13.2000 91.2000 TC 5 47
1955279N13091 1955 83 NI BB NOT_NAMED 1955-10-05 21:00:00 TS 13.3675 91.3799 main 418 403 P________P____ IO111955 13.3675 91.3799 -1 13.3675 91.3799 TC 4 44
1955279N13091 1955 83 NI BB NOT_NAMED 1955-10-06 00:00:00 TS 13.5000 91.5000 main 403 395 O________O____ jtwc_io IO111955 13.5000 91.5000 -1 13.5000 91.5000 TC 25 3 34
1955279N13091 1955 83 NI BB NOT_NAMED 1955-10-06 03:00:00 TS 13.5755 91.5200 main 395 395 P________PO___ IO111955 13.5725 91.5225 -1 13.5725 91.5225 TC 25 13.6000 91.5000 1 1 13
1955279N13091 1955 83 NI BB NOT_NAMED 1955-10-06 06:00:00 TS 13.6019 91.5022 main 395 395 O________OP___ jtwc_io IO111955 13.6000 91.5000 -1 13.6000 91.5000 TC 25 13.6094 91.5109 1 0 329
1955279N13091 1955 83 NI BB NOT_NAMED 1955-10-06 09:00:00 TS 13.6096 91.5048 main 395 395 P________PP___ IO111955 13.6075 91.5000 -1 13.6075 91.5000 TC 25 13.6150 91.5175 1 0 0
1955279N13091 1955 83 NI BB NOT_NAMED 1955-10-06 12:00:00 TS 13.6044 91.5051 main 395 395 O________OP___ jtwc_io IO111955 13.6000 91.5000 -1 13.6000 91.5000 TC 25 13.6131 91.5153 1 0 0
1955279N13091 1955 83 NI BB NOT_NAMED 1955-10-06 15:00:00 TS 13.6000 91.5000 main 395 395 P________PO___ IO111955 13.6000 91.5000 -1 13.6000 91.5000 TC 25 13.6000 91.5000 1 0 0
1955279N13091 1955 83 NI BB NOT_NAMED 1955-10-06 18:00:00 TS 13.5919 91.4905 main 395 395 O________OP___ jtwc_io IO111955 13.6000 91.5000 -1 13.6000 91.5000 TC 25 13.5756 91.4716 1 0 0
1955279N13091 1955 83 NI BB NOT_NAMED 1955-10-06 21:00:00 TS 13.5850 91.4776 main 395 395 P________PP___ IO111955 13.6000 91.4925 -1 13.6000 91.4925 TC 25 13.5549 91.4477 1 0 0
1955279N13091 1955 83 NI BB NOT_NAMED 1955-10-07 00:00:00 TS 13.5856 91.4833 main 395 395 O________OP___ jtwc_io IO111955 13.6000 91.5000 -1 13.6000 91.5000 TC 25 13.5568 91.4498 1 0 97
1955279N13091 1955 83 NI BB NOT_NAMED 1955-10-07 03:00:00 TS 13.5800 91.5134 main 395 387 P________PO___ IO111955 13.5700 91.5201 -1 13.5700 91.5201 TC 25 13.6000 91.5000 1 1 71
1955279N13091 1955 83 NI BB NOT_NAMED 1955-10-07 06:00:00 TS 13.6289 91.6109 main 387 356 O________OP___ jtwc_io IO111955 13.6000 91.6000 -1 13.6000 91.6000 TC 25 13.6867 91.6328 1 3 53
1955279N13091 1955 83 NI BB NOT_NAMED 1955-10-07 09:00:00 TS 13.7809 91.7891 main 356 325 P________PP___ IO111955 13.7625 91.7775 -1 13.7625 91.7775 TC 25 13.8177 91.8124 1 5 46
1955279N13091 1955 83 NI BB NOT_NAMED 1955-10-07 12:00:00 TS 13.9966 92.0036 main 325 294 O________OP___ jtwc_io IO111955 14.0000 92.0000 -1 14.0000 92.0000 TC 25 13.9898 92.0109 1 6 42
1955279N13091 1955 83 NI BB NOT_NAMED 1955-10-07 15:00:00 TS 14.2283 92.2100 main 294 255 P________PO___ IO111955 14.2425 92.2150 -1 14.2425 92.2150 TC 25 14.2000 92.2000 1 6 38
1955279N13091 1955 83 NI BB NOT_NAMED 1955-10-07 18:00:00 TS 14.4797 92.3932 main 255 233 O________OP___ jtwc_io IO111955 14.5000 92.4000 -1 14.5000 92.4000 TC 25 14.4391 92.3797 1 6 31
1955279N13091 1955 83 NI BB NOT_NAMED 1955-10-07 21:00:00 TS 14.7325 92.5282 main 233 204 P________PP___ IO111955 14.7425 92.5226 -1 14.7425 92.5226 TC 30 14.7125 92.5395 1 6 23
1955279N13091 1955 83 NI BB NOT_NAMED 1955-10-08 00:00:00 TS 15.0016 92.6182 main 204 178 O________OP___ jtwc_io IO111955 15.0000 92.6000 -1 15.0000 92.6000 TC 35 15.0047 92.6546 1 6 16
1955279N13091 1955 83 NI BB NOT_NAMED 1955-10-08 03:00:00 TS 15.3000 92.6916 main 178 166 P________PO___ IO111955 15.3000 92.6874 -1 15.3000 92.6874 TC 35 15.3000 92.7000 2 6 7
1955279N13091 1955 83 NI BB NOT_NAMED 1955-10-08 06:00:00 TS 15.5997 92.6919 main 166 163 O________OP___ jtwc_io IO111955 15.6000 92.7000 -1 15.6000 92.7000 TC 35 15.5992 92.6756 2 6 349
1955279N13091 1955 83 NI BB NOT_NAMED 1955-10-08 09:00:00 TS 15.8699 92.5843 main 171 171 P________PP___ IO111955 15.8575 92.5875 -1 15.8575 92.5875 TC 35 15.8947 92.5779 2 6 332
1955279N13091 1955 83 NI BB NOT_NAMED 1955-10-08 12:00:00 TS 16.1226 92.4054 main 192 192 O________OP___ jtwc_io IO111955 16.1000 92.4000 -1 16.1000 92.4000 TC 35 16.1679 92.4162 2 6 325
1955279N13091 1955 83 NI BB NOT_NAMED 1955-10-08 15:00:00 TS 16.3816 92.2150 main 218 218 P________PO___ IO111955 16.3724 92.2225 -1 16.3724 92.2225 TC 35 16.4000 92.2000 3 6 320
1955279N13091 1955 83 NI BB NOT_NAMED 1955-10-08 18:00:00 TS 16.5934 91.9902 main 244 244 O________OP___ jtwc_io IO111955 16.6000 92.0000 -1 16.6000 92.0000 TC 35 16.5802 91.9706 3 6 305
1955279N13091 1955 83 NI BB NOT_NAMED 1955-10-08 21:00:00 TS 16.7207 91.7166 main 278 278 P________PP___ IO111955 16.7224 91.7299 -1 16.7224 91.7299 TC 35 16.7173 91.6899 3 6 290
1955279N13091 1955 83 NI BB NOT_NAMED 1955-10-09 00:00:00 TS 16.8069 91.3881 main 310 310 O________OP___ jtwc_io IO111955 16.8000 91.4000 -1 16.8000 91.4000 TC 35 16.8207 91.3643 3 7 286
1955279N13091 1955 83 NI BB NOT_NAMED 1955-10-09 03:00:00 TS 16.9100 91.0151 main 354 354 P________PO___ IO111955 16.9150 91.0226 -1 16.9150 91.0226 TC 35 16.9000 91.0000 3 8 284
1955279N13091 1955 83 NI BB NOT_NAMED 1955-10-09 06:00:00 TS 16.9892 90.6036 main 396 396 O________OP___ jtwc_io IO111955 17.0000 90.6000 -1 17.0000 90.6000 TC 35 16.9676 90.6107 3 8 277
1955279N13091 1955 83 NI BB NOT_NAMED 1955-10-09 09:00:00 TS 17.0050 90.1622 main 432 432 P________PP___ IO111955 17.0000 90.1498 -1 17.0000 90.1498 TC 35 17.0151 90.1871 3 9 272
1955279N13091 1955 83 NI BB NOT_NAMED 1955-10-09 12:00:00 TS 17.0183 89.7150 main 478 445 O________OP___ jtwc_io IO111955 17.0000 89.7000 -1 17.0000 89.7000 TC 35 17.0550 89.7450 3 8 276
1955279N13091 1955 83 NI BB NOT_NAMED 1955-10-09 15:00:00 TS 17.0949 89.3001 main 445 409 P________PO___ IO111955 17.0923 89.3001 -1 17.0923 89.3001 TC 35 17.1000 89.3000 3 8 282
1955279N13091 1955 83 NI BB NOT_NAMED 1955-10-09 18:00:00 TS 17.1878 88.8957 main 409 383 O________OP___ jtwc_io IO111955 17.2000 88.9000 -1 17.2000 88.9000 TC 35 17.1633 88.8870 3 8 281
1955279N13091 1955 83 NI BB NOT_NAMED 1955-10-09 21:00:00 TS 17.2447 88.4623 main 383 345 P________PP___ IO111955 17.2499 88.4574 -1 17.2499 88.4574 TC 35 17.2343 88.4723 3 8 278
1955279N13091 1955 83 NI BB NOT_NAMED 1955-10-10 00:00:00 TS 17.3044 88.0154 main 345 317 O________OP___ jtwc_io IO111955 17.3000 88.0000 -1 17.3000 88.0000 TC 35 17.3132 88.0464 3 9 280
1955279N13091 1955 83 NI BB NOT_NAMED 1955-10-10 03:00:00 TS 17.3949 87.5717 main 317 288 P________PO___ IO111955 17.3923 87.5575 -1 17.3923 87.5575 TC 35 17.4000 87.6000 3 9 282
1955279N13091 1955 83 NI BB NOT_NAMED 1955-10-10 06:00:00 TS 17.4949 87.1058 main 288 250 O________OP___ jtwc_io IO111955 17.5000 87.1000 -1 17.5000 87.1000 TC 35 17.4846 87.1173 3 9 282
1955279N13091 1955 83 NI BB NOT_NAMED 1955-10-10 09:00:00 TS 17.5924 86.6099 main 250 200 P________PP___ IO111955 17.5999 86.6075 -1 17.5999 86.6075 TC 50 17.5774 86.6147 3 10 282
1955279N13091 1955 83 NI BB NOT_NAMED 1955-10-10 12:00:00 TS 17.6938 86.1016 main 200 153 O________OP___ jtwc_io IO111955 17.7000 86.1000 -1 17.7000 86.1000 TC 65 17.6815 86.1048 3 10 282
1955279N13091 1955 83 NI BB NOT_NAMED 1955-10-10 15:00:00 TS 17.7950 85.5949 main 153 107 P________PO___ IO111955 17.7924 85.5924 -1 17.7924 85.5924 TC 50 17.8000 85.6000 4 10 283
1955279N13091 1955 83 NI BB NOT_NAMED 1955-10-10 18:00:00 TS 17.9036 85.1084 main 107 70 O________OP___ jtwc_io IO111955 17.9000 85.1000 -1 17.9000 85.1000 TC 35 17.9107 85.1253 4 9 285
1955279N13091 1955 83 NI BB NOT_NAMED 1955-10-10 21:00:00 TS 18.0313 84.6520 main 70 15 P________PP___ IO111955 18.0273 84.6498 -1 18.0273 84.6498 TC 30 18.0392 84.6565 4 9 289
1955279N13091 1955 83 NI BB NOT_NAMED 1955-10-11 00:00:00 TS 18.1994 84.1948 main 15 0 O________OP___ jtwc_io IO111955 18.2000 84.2000 -1 18.2000 84.2000 TC 25 18.1982 84.1844 4 10 293
1955279N13091 1955 83 NI BB NOT_NAMED 1955-10-11 03:00:00 TS 18.4182 83.7099 main 0 0 P________PO___ IO111955 18.4274 83.7149 -1 18.4274 83.7149 TC 25 18.4000 83.7000 1 11 297
1955279N13091 1955 83 NI BB NOT_NAMED 1955-10-11 06:00:00 TS 18.6883 83.1952 main 0 0 O________OP___ jtwc_io IO111955 18.7000 83.2000 -1 18.7000 83.2000 TC 25 18.6648 83.1857 1 12 299
1955279N13091 1955 83 NI BB NOT_NAMED 1955-10-11 09:00:00 TS 18.9849 82.6526 main 0 0 P________PP___ IO111955 18.9925 82.6499 -1 18.9925 82.6499 TC 25 18.9698 82.6580 1 12 301
1955279N13091 1955 83 NI BB NOT_NAMED 1955-10-11 12:00:00 TS 19.2966 82.1087 main 0 0 O________OP___ jtwc_io IO111955 19.3000 82.1000 -1 19.3000 82.1000 TC 25 19.2898 82.1262 1 12 302
1955279N13091 1955 83 NI BB NOT_NAMED 1955-10-11 15:00:00 TS 19.6099 81.5949 main 0 0 P________PO___ IO111955 19.6148 81.5924 -1 19.6148 81.5924 TC 25 19.6000 81.6000 1 11 300
1955279N13091 1955 83 NI BB NOT_NAMED 1955-10-11 18:00:00 TS 19.8557 81.0874 main 0 0 O________OP___ jtwc_io IO111955 19.9000 81.1000 -1 19.9000 81.1000 TC 25 19.7670 81.0621 1 11 294
1955279N13091 1955 83 NI BB NOT_NAMED 1955-10-11 21:00:00 TS 20.0300 80.5735 main 0 0 P________PP___ IO111955 20.0774 80.5919 -1 20.0774 80.5919 TC 25 19.9353 80.5367 1 10 293
1955279N13091 1955 83 NI BB NOT_NAMED 1955-10-12 00:00:00 TS 20.2620 80.0811 main 0 0 O________OP___ jtwc_io IO111955 20.3000 80.1000 -1 20.3000 80.1000 TC 25 20.1859 80.0432 1 11 303
1955279N13091 1955 83 NI BB NOT_NAMED 1955-10-12 03:00:00 TS 20.6200 79.6180 main 0 0 P________PO___ IO111955 20.6300 79.6270 -1 20.6300 79.6270 TC 25 20.6000 79.6000 1 13 320
1955279N13091 1955 83 NI BB NOT_NAMED 1955-10-12 06:00:00 TS 21.2392 79.1994 main 0 0 O________OP___ jtwc_io IO111955 21.2000 79.2000 -1 21.2000 79.2000 TC 25 21.3177 79.1982 1 17 334
1955279N13091 1955 83 NI BB NOT_NAMED 1955-10-12 09:00:00 TS 22.1682 78.8246 main 0 0 P________PP___ IO111955 22.1550 78.8131 -1 22.1550 78.8131 TC 25 22.1947 78.8476 1 20 342
1955279N13091 1955 83 NI BB NOT_NAMED 1955-10-12 12:00:00 TS 23.1748 78.5160 main 0 0 O________OP___ jtwc_io IO111955 23.2000 78.5000 -1 23.2000 78.5000 TC 25 23.1243 78.5480 1 19 345
1955279N13091 1955 83 NI BB NOT_NAMED 1955-10-12 15:00:00 TS 24.0065 78.2796 main 0 0 P________PO___ IO111955 24.0098 78.2694 -1 24.0098 78.2694 TC 25 24.0000 78.3000 1 16 346
1955279N13091 1955 83 NI BB NOT_NAMED 1955-10-12 18:00:00 TS 24.7159 78.1011 main 0 0 O________OP___ jtwc_io IO111955 24.7000 78.1000 -1 24.7000 78.1000 TC 25 24.7398 78.1029 1 14 347
1955279N13091 1955 83 NI AS NOT_NAMED 1955-10-12 21:00:00 TS 25.3356 77.9472 main 0 0 P________PP___ IO111955 25.3176 77.9479 -1 25.3176 77.9479 TC 25 25.3596 77.9461 1 12 347
1955279N13091 1955 83 NI AS NOT_NAMED 1955-10-13 00:00:00 TS 25.8998 77.8082 main 0 0 O________OP___ jtwc_io IO111955 25.9000 77.8000 -1 25.9000 77.8000 TC 25 25.8997 77.8165 1 11 348
1955279N13091 1955 83 NI AS NOT_NAMED 1955-10-13 03:00:00 NR 26.4000 77.7000 main 0 __________O___ IO111955 -1 TC 26.4000 77.7000 1 10 349

IBTrACS Databaseについて

本データベースは、米国NOAAが公開する1842年以降の世界の熱帯低気圧のベストトラックデータアーカイブInternational Best Track Archive for Climate Stewardship (IBTrACS)を、ウェブで閲覧しやすい形式に変換したものです。

最終更新日:2021-11-26